sensor_id;sensor_type;location;lat;lon;timestamp;temperature;humidity
10121;DHT22;5100;45.176;5.714;2022-11-20T00:01:12;12.10;68.50
10121;DHT22;5100;45.176;5.714;2022-11-20T00:03:38;12.10;68.60
10121;DHT22;5100;45.176;5.714;2022-11-20T00:06:10;12.10;68.60
10121;DHT22;5100;45.176;5.714;2022-11-20T00:08:36;12.10;68.80
10121;DHT22;5100;45.176;5.714;2022-11-20T00:11:04;12.10;68.60
10121;DHT22;5100;45.176;5.714;2022-11-20T00:13:31;12.10;68.60
10121;DHT22;5100;45.176;5.714;2022-11-20T00:15:58;12.10;68.60
10121;DHT22;5100;45.176;5.714;2022-11-20T00:18:25;12.10;68.60
10121;DHT22;5100;45.176;5.714;2022-11-20T00:20:52;12.10;68.60
10121;DHT22;5100;45.176;5.714;2022-11-20T00:23:17;12.10;68.40
10121;DHT22;5100;45.176;5.714;2022-11-20T00:25:44;12.10;68.50
10121;DHT22;5100;45.176;5.714;2022-11-20T00:28:10;12.10;68.60
10121;DHT22;5100;45.176;5.714;2022-11-20T00:30:36;12.10;68.60
10121;DHT22;5100;45.176;5.714;2022-11-20T00:33:02;12.10;68.50
10121;DHT22;5100;45.176;5.714;2022-11-20T00:35:28;12.00;68.60
10121;DHT22;5100;45.176;5.714;2022-11-20T00:37:54;12.00;68.50
10121;DHT22;5100;45.176;5.714;2022-11-20T00:40:20;12.00;68.60
10121;DHT22;5100;45.176;5.714;2022-11-20T00:42:46;12.00;68.60
10121;DHT22;5100;45.176;5.714;2022-11-20T00:45:12;12.00;68.80
10121;DHT22;5100;45.176;5.714;2022-11-20T00:47:39;12.00;68.80
10121;DHT22;5100;45.176;5.714;2022-11-20T00:50:05;12.00;68.80
10121;DHT22;5100;45.176;5.714;2022-11-20T00:52:31;12.00;68.80
10121;DHT22;5100;45.176;5.714;2022-11-20T00:54:57;12.00;68.80
10121;DHT22;5100;45.176;5.714;2022-11-20T00:57:23;12.00;69.00
10121;DHT22;5100;45.176;5.714;2022-11-20T00:59:49;12.00;68.80
10121;DHT22;5100;45.176;5.714;2022-11-20T01:02:15;12.00;69.00
10121;DHT22;5100;45.176;5.714;2022-11-20T01:04:42;12.00;69.00
10121;DHT22;5100;45.176;5.714;2022-11-20T01:07:08;12.00;69.20
10121;DHT22;5100;45.176;5.714;2022-11-20T01:09:35;12.00;69.20
10121;DHT22;5100;45.176;5.714;2022-11-20T01:12:00;12.00;69.10
10121;DHT22;5100;45.176;5.714;2022-11-20T01:14:27;12.00;69.10
10121;DHT22;5100;45.176;5.714;2022-11-20T01:16:53;11.90;69.10
10121;DHT22;5100;45.176;5.714;2022-11-20T01:19:21;11.90;69.00
10121;DHT22;5100;45.176;5.714;2022-11-20T01:21:52;11.90;69.00
10121;DHT22;5100;45.176;5.714;2022-11-20T01:24:20;11.90;69.00
10121;DHT22;5100;45.176;5.714;2022-11-20T01:26:48;11.90;69.00
10121;DHT22;5100;45.176;5.714;2022-11-20T01:29:24;11.90;69.10
10121;DHT22;5100;45.176;5.714;2022-11-20T01:31:51;11.90;69.20
10121;DHT22;5100;45.176;5.714;2022-11-20T01:34:19;11.90;69.20
10121;DHT22;5100;45.176;5.714;2022-11-20T01:36:46;11.90;69.10
10121;DHT22;5100;45.176;5.714;2022-11-20T01:39:16;11.90;69.20
10121;DHT22;5100;45.176;5.714;2022-11-20T01:41:42;11.90;68.90
10121;DHT22;5100;45.176;5.714;2022-11-20T01:45:00;11.90;68.90
10121;DHT22;5100;45.176;5.714;2022-11-20T01:47:42;11.90;68.70
10121;DHT22;5100;45.176;5.714;2022-11-20T01:50:28;11.90;68.70
10121;DHT22;5100;45.176;5.714;2022-11-20T01:53:02;11.90;68.70
10121;DHT22;5100;45.176;5.714;2022-11-20T01:55:37;11.90;68.80
10121;DHT22;5100;45.176;5.714;2022-11-20T01:58:06;11.90;68.90
10121;DHT22;5100;45.176;5.714;2022-11-20T02:00:32;11.90;68.70
10121;DHT22;5100;45.176;5.714;2022-11-20T02:03:03;11.90;68.70
10121;DHT22;5100;45.176;5.714;2022-11-20T02:05:47;11.90;68.70
10121;DHT22;5100;45.176;5.714;2022-11-20T02:08:15;11.90;68.70
10121;DHT22;5100;45.176;5.714;2022-11-20T02:10:41;11.90;68.80
10121;DHT22;5100;45.176;5.714;2022-11-20T02:13:08;11.90;68.90
10121;DHT22;5100;45.176;5.714;2022-11-20T02:15:53;11.90;69.00
10121;DHT22;5100;45.176;5.714;2022-11-20T02:18:21;11.90;69.10
10121;DHT22;5100;45.176;5.714;2022-11-20T02:20:53;11.90;69.00
10121;DHT22;5100;45.176;5.714;2022-11-20T02:23:28;11.90;69.00
10121;DHT22;5100;45.176;5.714;2022-11-20T02:25:57;11.90;68.70
10121;DHT22;5100;45.176;5.714;2022-11-20T02:28:23;11.90;68.70
10121;DHT22;5100;45.176;5.714;2022-11-20T02:30:49;11.90;68.70
10121;DHT22;5100;45.176;5.714;2022-11-20T02:33:15;11.90;68.50
10121;DHT22;5100;45.176;5.714;2022-11-20T02:35:43;11.90;68.50
10121;DHT22;5100;45.176;5.714;2022-11-20T02:38:10;11.90;68.50
10121;DHT22;5100;45.176;5.714;2022-11-20T02:40:36;11.90;68.70
10121;DHT22;5100;45.176;5.714;2022-11-20T02:43:02;11.90;68.60
10121;DHT22;5100;45.176;5.714;2022-11-20T02:45:28;11.90;68.70
10121;DHT22;5100;45.176;5.714;2022-11-20T02:47:54;11.90;68.70
10121;DHT22;5100;45.176;5.714;2022-11-20T02:50:21;11.90;68.70
10121;DHT22;5100;45.176;5.714;2022-11-20T02:52:46;11.80;68.60
10121;DHT22;5100;45.176;5.714;2022-11-20T02:55:12;11.80;68.60
10121;DHT22;5100;45.176;5.714;2022-11-20T02:57:38;11.80;68.60
10121;DHT22;5100;45.176;5.714;2022-11-20T03:00:05;11.80;68.60
10121;DHT22;5100;45.176;5.714;2022-11-20T03:02:32;11.80;68.70
10121;DHT22;5100;45.176;5.714;2022-11-20T03:04:59;11.80;68.50
10121;DHT22;5100;45.176;5.714;2022-11-20T03:07:25;11.80;68.50
10121;DHT22;5100;45.176;5.714;2022-11-20T03:09:50;11.80;68.40
10121;DHT22;5100;45.176;5.714;2022-11-20T03:12:17;11.80;68.20
10121;DHT22;5100;45.176;5.714;2022-11-20T03:14:43;11.80;67.90
10121;DHT22;5100;45.176;5.714;2022-11-20T03:17:09;11.80;67.90
10121;DHT22;5100;45.176;5.714;2022-11-20T03:19:35;11.80;67.90
10121;DHT22;5100;45.176;5.714;2022-11-20T03:22:01;11.80;68.00
10121;DHT22;5100;45.176;5.714;2022-11-20T03:24:27;11.80;68.00
10121;DHT22;5100;45.176;5.714;2022-11-20T03:26:53;11.80;68.20
10121;DHT22;5100;45.176;5.714;2022-11-20T03:29:19;11.70;68.20
10121;DHT22;5100;45.176;5.714;2022-11-20T03:31:45;11.80;68.30
10121;DHT22;5100;45.176;5.714;2022-11-20T03:34:12;11.70;68.40
10121;DHT22;5100;45.176;5.714;2022-11-20T03:36:39;11.70;68.50
10121;DHT22;5100;45.176;5.714;2022-11-20T03:39:06;11.70;68.50
10121;DHT22;5100;45.176;5.714;2022-11-20T03:41:37;11.70;68.60
10121;DHT22;5100;45.176;5.714;2022-11-20T03:44:05;11.70;68.70
10121;DHT22;5100;45.176;5.714;2022-11-20T03:46:31;11.70;68.70
10121;DHT22;5100;45.176;5.714;2022-11-20T03:48:58;11.70;68.70
10121;DHT22;5100;45.176;5.714;2022-11-20T03:51:25;11.70;68.50
10121;DHT22;5100;45.176;5.714;2022-11-20T03:53:53;11.70;68.40
10121;DHT22;5100;45.176;5.714;2022-11-20T03:56:25;11.70;68.40
10121;DHT22;5100;45.176;5.714;2022-11-20T03:58:52;11.70;68.40
10121;DHT22;5100;45.176;5.714;2022-11-20T04:01:22;11.70;68.40
10121;DHT22;5100;45.176;5.714;2022-11-20T04:03:52;11.70;68.30
10121;DHT22;5100;45.176;5.714;2022-11-20T04:06:21;11.70;68.10
10121;DHT22;5100;45.176;5.714;2022-11-20T04:08:48;11.70;68.10
10121;DHT22;5100;45.176;5.714;2022-11-20T04:11:16;11.70;68.10
10121;DHT22;5100;45.176;5.714;2022-11-20T04:13:45;11.70;68.20
10121;DHT22;5100;45.176;5.714;2022-11-20T04:16:11;11.70;68.00
10121;DHT22;5100;45.176;5.714;2022-11-20T04:18:38;11.70;68.20
10121;DHT22;5100;45.176;5.714;2022-11-20T04:21:05;11.70;68.00
10121;DHT22;5100;45.176;5.714;2022-11-20T04:23:32;11.70;68.00
10121;DHT22;5100;45.176;5.714;2022-11-20T04:26:09;11.70;68.20
10121;DHT22;5100;45.176;5.714;2022-11-20T04:28:36;11.60;68.20
10121;DHT22;5100;45.176;5.714;2022-11-20T04:31:08;11.60;68.00
10121;DHT22;5100;45.176;5.714;2022-11-20T04:33:35;11.60;68.10
10121;DHT22;5100;45.176;5.714;2022-11-20T04:36:12;11.60;67.80
10121;DHT22;5100;45.176;5.714;2022-11-20T04:38:38;11.60;67.80
10121;DHT22;5100;45.176;5.714;2022-11-20T04:41:06;11.60;67.30
10121;DHT22;5100;45.176;5.714;2022-11-20T04:43:33;11.60;67.10
10121;DHT22;5100;45.176;5.714;2022-11-20T04:46:00;11.60;67.40
10121;DHT22;5100;45.176;5.714;2022-11-20T04:48:27;11.60;67.60
10121;DHT22;5100;45.176;5.714;2022-11-20T04:50:53;11.60;67.60
10121;DHT22;5100;45.176;5.714;2022-11-20T04:53:20;11.60;67.80
10121;DHT22;5100;45.176;5.714;2022-11-20T04:55:47;11.60;67.80
10121;DHT22;5100;45.176;5.714;2022-11-20T04:58:13;11.60;67.80
10121;DHT22;5100;45.176;5.714;2022-11-20T05:00:40;11.60;67.90
10121;DHT22;5100;45.176;5.714;2022-11-20T05:03:06;11.60;67.90
10121;DHT22;5100;45.176;5.714;2022-11-20T05:05:34;11.60;68.00
10121;DHT22;5100;45.176;5.714;2022-11-20T05:08:00;11.60;68.00
10121;DHT22;5100;45.176;5.714;2022-11-20T05:10:27;11.60;67.80
10121;DHT22;5100;45.176;5.714;2022-11-20T05:12:53;11.60;67.50
10121;DHT22;5100;45.176;5.714;2022-11-20T05:15:19;11.70;67.20
10121;DHT22;5100;45.176;5.714;2022-11-20T05:17:49;11.60;66.80
10121;DHT22;5100;45.176;5.714;2022-11-20T05:20:16;11.60;66.70
10121;DHT22;5100;45.176;5.714;2022-11-20T05:22:42;11.60;66.80
10121;DHT22;5100;45.176;5.714;2022-11-20T05:25:08;11.60;66.80
10121;DHT22;5100;45.176;5.714;2022-11-20T05:27:34;11.60;66.80
10121;DHT22;5100;45.176;5.714;2022-11-20T05:30:01;11.60;66.80
10121;DHT22;5100;45.176;5.714;2022-11-20T05:32:26;11.60;66.70
10121;DHT22;5100;45.176;5.714;2022-11-20T05:34:52;11.60;66.80
10121;DHT22;5100;45.176;5.714;2022-11-20T05:37:19;11.60;66.90
10121;DHT22;5100;45.176;5.714;2022-11-20T05:39:45;11.60;66.80
10121;DHT22;5100;45.176;5.714;2022-11-20T05:42:11;11.60;66.80
10121;DHT22;5100;45.176;5.714;2022-11-20T05:44:59;11.60;66.90
10121;DHT22;5100;45.176;5.714;2022-11-20T05:47:27;11.60;67.00
10121;DHT22;5100;45.176;5.714;2022-11-20T05:49:53;11.60;67.00
10121;DHT22;5100;45.176;5.714;2022-11-20T05:52:20;11.60;67.10
10121;DHT22;5100;45.176;5.714;2022-11-20T05:54:46;11.60;66.90
10121;DHT22;5100;45.176;5.714;2022-11-20T05:57:11;11.60;66.80
10121;DHT22;5100;45.176;5.714;2022-11-20T05:59:38;11.60;67.00
10121;DHT22;5100;45.176;5.714;2022-11-20T06:02:04;11.60;66.90
10121;DHT22;5100;45.176;5.714;2022-11-20T06:04:30;11.50;66.90
10121;DHT22;5100;45.176;5.714;2022-11-20T06:06:56;11.50;66.90
10121;DHT22;5100;45.176;5.714;2022-11-20T06:09:22;11.60;66.90
10121;DHT22;5100;45.176;5.714;2022-11-20T06:11:49;11.60;67.00
10121;DHT22;5100;45.176;5.714;2022-11-20T06:14:15;11.50;67.10
10121;DHT22;5100;45.176;5.714;2022-11-20T06:16:41;11.50;67.20
10121;DHT22;5100;45.176;5.714;2022-11-20T06:19:10;11.50;67.00
10121;DHT22;5100;45.176;5.714;2022-11-20T06:21:37;11.50;66.80
10121;DHT22;5100;45.176;5.714;2022-11-20T06:24:06;11.50;66.80
10121;DHT22;5100;45.176;5.714;2022-11-20T06:26:32;11.50;66.90
10121;DHT22;5100;45.176;5.714;2022-11-20T06:29:01;11.50;67.30
10121;DHT22;5100;45.176;5.714;2022-11-20T06:31:28;11.50;67.10
10121;DHT22;5100;45.176;5.714;2022-11-20T06:33:54;11.50;67.00
10121;DHT22;5100;45.176;5.714;2022-11-20T06:36:22;11.50;67.00
10121;DHT22;5100;45.176;5.714;2022-11-20T06:38:49;11.40;67.10
10121;DHT22;5100;45.176;5.714;2022-11-20T06:41:18;11.50;67.30
10121;DHT22;5100;45.176;5.714;2022-11-20T06:43:46;11.40;67.20
10121;DHT22;5100;45.176;5.714;2022-11-20T06:46:14;11.40;67.20
10121;DHT22;5100;45.176;5.714;2022-11-20T06:48:40;11.40;67.10
10121;DHT22;5100;45.176;5.714;2022-11-20T06:51:07;11.40;67.00
10121;DHT22;5100;45.176;5.714;2022-11-20T06:53:34;11.40;67.00
10121;DHT22;5100;45.176;5.714;2022-11-20T06:56:01;11.30;67.10
10121;DHT22;5100;45.176;5.714;2022-11-20T06:58:29;11.40;67.40
10121;DHT22;5100;45.176;5.714;2022-11-20T07:01:00;11.30;67.30
10121;DHT22;5100;45.176;5.714;2022-11-20T07:03:27;11.30;67.20
10121;DHT22;5100;45.176;5.714;2022-11-20T07:05:57;11.30;67.30
10121;DHT22;5100;45.176;5.714;2022-11-20T07:08:24;11.30;67.50
10121;DHT22;5100;45.176;5.714;2022-11-20T07:10:51;11.30;67.40
10121;DHT22;5100;45.176;5.714;2022-11-20T07:13:17;11.30;67.40
10121;DHT22;5100;45.176;5.714;2022-11-20T07:15:43;11.30;67.40
10121;DHT22;5100;45.176;5.714;2022-11-20T07:18:09;11.30;67.50
10121;DHT22;5100;45.176;5.714;2022-11-20T07:20:35;11.30;68.00
10121;DHT22;5100;45.176;5.714;2022-11-20T07:23:01;11.30;67.80
10121;DHT22;5100;45.176;5.714;2022-11-20T07:25:28;11.30;67.90
10121;DHT22;5100;45.176;5.714;2022-11-20T07:27:58;11.40;68.40
10121;DHT22;5100;45.176;5.714;2022-11-20T07:30:24;11.40;68.30
10121;DHT22;5100;45.176;5.714;2022-11-20T07:32:52;11.50;68.20
10121;DHT22;5100;45.176;5.714;2022-11-20T07:35:18;11.50;68.30
10121;DHT22;5100;45.176;5.714;2022-11-20T07:37:44;11.50;68.00
10121;DHT22;5100;45.176;5.714;2022-11-20T07:40:15;11.50;68.00
10121;DHT22;5100;45.176;5.714;2022-11-20T07:42:51;11.50;68.00
10121;DHT22;5100;45.176;5.714;2022-11-20T07:45:19;11.60;67.90
10121;DHT22;5100;45.176;5.714;2022-11-20T07:47:45;11.60;67.80
10121;DHT22;5100;45.176;5.714;2022-11-20T07:50:12;11.50;67.80
10121;DHT22;5100;45.176;5.714;2022-11-20T07:52:38;11.50;67.80
10121;DHT22;5100;45.176;5.714;2022-11-20T07:55:05;11.60;67.70
10121;DHT22;5100;45.176;5.714;2022-11-20T07:57:31;11.60;67.60
10121;DHT22;5100;45.176;5.714;2022-11-20T07:59:57;11.60;67.40
10121;DHT22;5100;45.176;5.714;2022-11-20T08:02:23;11.60;67.20
10121;DHT22;5100;45.176;5.714;2022-11-20T08:04:49;11.60;67.30
10121;DHT22;5100;45.176;5.714;2022-11-20T08:07:15;11.60;67.30
10121;DHT22;5100;45.176;5.714;2022-11-20T08:09:41;11.60;67.20
10121;DHT22;5100;45.176;5.714;2022-11-20T08:12:07;11.60;67.20
10121;DHT22;5100;45.176;5.714;2022-11-20T08:14:52;11.60;67.20
10121;DHT22;5100;45.176;5.714;2022-11-20T08:17:18;11.70;67.10
10121;DHT22;5100;45.176;5.714;2022-11-20T08:19:44;11.70;67.10
10121;DHT22;5100;45.176;5.714;2022-11-20T08:22:10;11.70;67.10
10121;DHT22;5100;45.176;5.714;2022-11-20T08:24:36;11.70;67.10
10121;DHT22;5100;45.176;5.714;2022-11-20T08:27:02;11.70;66.90
10121;DHT22;5100;45.176;5.714;2022-11-20T08:29:28;11.70;66.90
10121;DHT22;5100;45.176;5.714;2022-11-20T08:31:55;11.80;66.90
10121;DHT22;5100;45.176;5.714;2022-11-20T08:34:21;11.80;66.80
10121;DHT22;5100;45.176;5.714;2022-11-20T08:36:46;11.80;66.90
10121;DHT22;5100;45.176;5.714;2022-11-20T08:39:14;11.80;67.00
10121;DHT22;5100;45.176;5.714;2022-11-20T08:41:40;11.90;66.70
10121;DHT22;5100;45.176;5.714;2022-11-20T08:44:07;11.90;66.60
10121;DHT22;5100;45.176;5.714;2022-11-20T08:46:39;11.90;66.60
10121;DHT22;5100;45.176;5.714;2022-11-20T08:49:09;11.90;66.70
10121;DHT22;5100;45.176;5.714;2022-11-20T08:51:36;11.90;66.70
10121;DHT22;5100;45.176;5.714;2022-11-20T08:54:03;11.90;66.50
10121;DHT22;5100;45.176;5.714;2022-11-20T08:56:29;11.90;66.40
10121;DHT22;5100;45.176;5.714;2022-11-20T08:58:55;11.90;66.40
10121;DHT22;5100;45.176;5.714;2022-11-20T09:01:22;11.90;66.50
10121;DHT22;5100;45.176;5.714;2022-11-20T09:03:49;12.00;66.70
10121;DHT22;5100;45.176;5.714;2022-11-20T09:06:16;11.90;66.60
10121;DHT22;5100;45.176;5.714;2022-11-20T09:08:42;12.00;66.60
10121;DHT22;5100;45.176;5.714;2022-11-20T09:11:09;12.00;66.50
10121;DHT22;5100;45.176;5.714;2022-11-20T09:13:36;12.00;66.50
10121;DHT22;5100;45.176;5.714;2022-11-20T09:16:05;12.00;66.40
10121;DHT22;5100;45.176;5.714;2022-11-20T09:18:32;12.00;66.40
10121;DHT22;5100;45.176;5.714;2022-11-20T09:21:00;12.10;66.30
10121;DHT22;5100;45.176;5.714;2022-11-20T09:23:30;12.10;66.30
10121;DHT22;5100;45.176;5.714;2022-11-20T09:25:56;12.10;66.30
10121;DHT22;5100;45.176;5.714;2022-11-20T09:28:25;12.10;66.30
10121;DHT22;5100;45.176;5.714;2022-11-20T09:30:51;12.10;66.30
10121;DHT22;5100;45.176;5.714;2022-11-20T09:33:18;12.10;66.40
10121;DHT22;5100;45.176;5.714;2022-11-20T09:35:44;12.10;66.40
10121;DHT22;5100;45.176;5.714;2022-11-20T09:38:10;12.10;66.30
10121;DHT22;5100;45.176;5.714;2022-11-20T09:40:43;12.20;65.80
10121;DHT22;5100;45.176;5.714;2022-11-20T09:43:12;12.20;65.50
10121;DHT22;5100;45.176;5.714;2022-11-20T09:54:35;12.30;64.90
10121;DHT22;5100;45.176;5.714;2022-11-20T09:57:05;12.30;65.20
10121;DHT22;5100;45.176;5.714;2022-11-20T09:59:46;12.30;65.00
10121;DHT22;5100;45.176;5.714;2022-11-20T10:07:44;12.40;65.10
10121;DHT22;5100;45.176;5.714;2022-11-20T10:10:38;12.40;65.20
10121;DHT22;5100;45.176;5.714;2022-11-20T10:13:59;12.40;65.10
10121;DHT22;5100;45.176;5.714;2022-11-20T10:19:37;12.50;64.70
10121;DHT22;5100;45.176;5.714;2022-11-20T10:30:06;12.60;63.00
10121;DHT22;5100;45.176;5.714;2022-11-20T10:32:37;12.60;62.70
10121;DHT22;5100;45.176;5.714;2022-11-20T10:37:38;12.60;63.40
10121;DHT22;5100;45.176;5.714;2022-11-20T10:40:33;12.70;63.00
10121;DHT22;5100;45.176;5.714;2022-11-20T10:43:27;12.70;62.70
10121;DHT22;5100;45.176;5.714;2022-11-20T10:46:08;12.70;62.60
10121;DHT22;5100;45.176;5.714;2022-11-20T10:48:43;12.80;62.50
10121;DHT22;5100;45.176;5.714;2022-11-20T10:51:18;12.80;62.60
10121;DHT22;5100;45.176;5.714;2022-11-20T10:59:12;12.90;62.40
10121;DHT22;5100;45.176;5.714;2022-11-20T11:01:42;12.90;62.20
10121;DHT22;5100;45.176;5.714;2022-11-20T11:04:39;13.00;62.30
10121;DHT22;5100;45.176;5.714;2022-11-20T11:09:44;13.00;62.30
10121;DHT22;5100;45.176;5.714;2022-11-20T11:12:12;13.00;61.90
10121;DHT22;5100;45.176;5.714;2022-11-20T11:14:50;13.10;62.00
10121;DHT22;5100;45.176;5.714;2022-11-20T11:17:22;13.10;62.00
10121;DHT22;5100;45.176;5.714;2022-11-20T11:20:14;13.10;61.50
10121;DHT22;5100;45.176;5.714;2022-11-20T11:22:51;13.20;61.20
10121;DHT22;5100;45.176;5.714;2022-11-20T11:28:05;13.20;61.30
10121;DHT22;5100;45.176;5.714;2022-11-20T11:30:45;13.20;60.60
10121;DHT22;5100;45.176;5.714;2022-11-20T11:33:21;13.20;60.80
10121;DHT22;5100;45.176;5.714;2022-11-20T11:35:53;13.30;61.00
10121;DHT22;5100;45.176;5.714;2022-11-20T11:38:41;13.30;59.90
10121;DHT22;5100;45.176;5.714;2022-11-20T11:41:23;13.20;60.00
10121;DHT22;5100;45.176;5.714;2022-11-20T11:43:56;13.20;60.20
10121;DHT22;5100;45.176;5.714;2022-11-20T11:46:55;13.20;60.10
10121;DHT22;5100;45.176;5.714;2022-11-20T11:49:23;13.20;59.80
10121;DHT22;5100;45.176;5.714;2022-11-20T12:05:45;13.20;59.60
10121;DHT22;5100;45.176;5.714;2022-11-20T12:10:57;13.20;59.70
10121;DHT22;5100;45.176;5.714;2022-11-20T12:16:04;13.20;59.40
10121;DHT22;5100;45.176;5.714;2022-11-20T12:18:30;13.20;59.60
10121;DHT22;5100;45.176;5.714;2022-11-20T12:34:51;13.30;57.90
10121;DHT22;5100;45.176;5.714;2022-11-20T12:39:56;13.30;57.90
10121;DHT22;5100;45.176;5.714;2022-11-20T12:48:30;13.20;58.10
10121;DHT22;5100;45.176;5.714;2022-11-20T12:57:29;13.20;58.00
10121;DHT22;5100;45.176;5.714;2022-11-20T13:00:12;13.20;58.50
10121;DHT22;5100;45.176;5.714;2022-11-20T13:05:39;13.20;58.40
10121;DHT22;5100;45.176;5.714;2022-11-20T13:08:20;13.20;58.40
10121;DHT22;5100;45.176;5.714;2022-11-20T13:11:33;13.20;58.20
10121;DHT22;5100;45.176;5.714;2022-11-20T13:14:31;13.20;58.30
10121;DHT22;5100;45.176;5.714;2022-11-20T13:16:58;13.20;58.60
10121;DHT22;5100;45.176;5.714;2022-11-20T13:19:25;13.20;59.10
10121;DHT22;5100;45.176;5.714;2022-11-20T13:21:52;13.20;58.80
10121;DHT22;5100;45.176;5.714;2022-11-20T13:26:45;13.20;58.30
10121;DHT22;5100;45.176;5.714;2022-11-20T13:29:19;13.20;58.40
10121;DHT22;5100;45.176;5.714;2022-11-20T13:31:47;13.20;58.20
10121;DHT22;5100;45.176;5.714;2022-11-20T13:34:23;13.20;58.40
10121;DHT22;5100;45.176;5.714;2022-11-20T13:36:55;13.20;58.30
10121;DHT22;5100;45.176;5.714;2022-11-20T13:39:35;13.20;58.50
10121;DHT22;5100;45.176;5.714;2022-11-20T13:42:22;13.30;58.60
10121;DHT22;5100;45.176;5.714;2022-11-20T13:44:54;13.20;58.90
10121;DHT22;5100;45.176;5.714;2022-11-20T13:47:24;13.20;58.60
10121;DHT22;5100;45.176;5.714;2022-11-20T13:49:52;13.20;57.90
10121;DHT22;5100;45.176;5.714;2022-11-20T13:58:21;13.20;56.70
10121;DHT22;5100;45.176;5.714;2022-11-20T14:00:57;13.20;56.10
10121;DHT22;5100;45.176;5.714;2022-11-20T14:03:25;13.20;55.60
10121;DHT22;5100;45.176;5.714;2022-11-20T14:05:55;13.20;56.10
10121;DHT22;5100;45.176;5.714;2022-11-20T14:08:45;13.20;56.10
10121;DHT22;5100;45.176;5.714;2022-11-20T14:11:20;13.20;56.90
10121;DHT22;5100;45.176;5.714;2022-11-20T14:14:00;13.20;57.60
10121;DHT22;5100;45.176;5.714;2022-11-20T14:16:29;13.30;58.00
10121;DHT22;5100;45.176;5.714;2022-11-20T14:18:57;13.30;58.00
10121;DHT22;5100;45.176;5.714;2022-11-20T14:21:29;13.30;58.10
10121;DHT22;5100;45.176;5.714;2022-11-20T14:24:11;13.30;58.30
10121;DHT22;5100;45.176;5.714;2022-11-20T14:26:41;13.30;58.40
10121;DHT22;5100;45.176;5.714;2022-11-20T14:29:20;13.30;58.50
10121;DHT22;5100;45.176;5.714;2022-11-20T14:31:50;13.30;58.20
10121;DHT22;5100;45.176;5.714;2022-11-20T14:34:29;13.30;58.20
10121;DHT22;5100;45.176;5.714;2022-11-20T14:37:02;13.30;58.20
10121;DHT22;5100;45.176;5.714;2022-11-20T14:39:37;13.30;57.90
10121;DHT22;5100;45.176;5.714;2022-11-20T14:42:17;13.30;57.60
10121;DHT22;5100;45.176;5.714;2022-11-20T14:44:44;13.30;57.70
10121;DHT22;5100;45.176;5.714;2022-11-20T14:47:35;13.30;57.80
10121;DHT22;5100;45.176;5.714;2022-11-20T14:50:26;13.30;57.60
10121;DHT22;5100;45.176;5.714;2022-11-20T14:52:58;13.30;57.60
10121;DHT22;5100;45.176;5.714;2022-11-20T14:55:36;13.30;57.30
10121;DHT22;5100;45.176;5.714;2022-11-20T14:58:23;13.30;57.20
10121;DHT22;5100;45.176;5.714;2022-11-20T15:00:58;13.30;57.20
10121;DHT22;5100;45.176;5.714;2022-11-20T15:03:31;13.20;57.20
10121;DHT22;5100;45.176;5.714;2022-11-20T15:05:58;13.30;57.20
10121;DHT22;5100;45.176;5.714;2022-11-20T15:08:25;13.20;57.20
10121;DHT22;5100;45.176;5.714;2022-11-20T15:10:51;13.20;57.30
10121;DHT22;5100;45.176;5.714;2022-11-20T15:16:00;13.20;58.10
10121;DHT22;5100;45.176;5.714;2022-11-20T15:18:32;13.20;58.60
10121;DHT22;5100;45.176;5.714;2022-11-20T15:21:02;13.20;58.30
10121;DHT22;5100;45.176;5.714;2022-11-20T15:23:29;13.20;58.10
10121;DHT22;5100;45.176;5.714;2022-11-20T15:25:55;13.20;58.00
10121;DHT22;5100;45.176;5.714;2022-11-20T15:28:32;13.20;57.90
10121;DHT22;5100;45.176;5.714;2022-11-20T15:31:00;13.20;58.10
10121;DHT22;5100;45.176;5.714;2022-11-20T15:33:26;13.20;58.10
10121;DHT22;5100;45.176;5.714;2022-11-20T15:35:52;13.20;58.10
10121;DHT22;5100;45.176;5.714;2022-11-20T15:38:18;13.20;58.50
10121;DHT22;5100;45.176;5.714;2022-11-20T15:40:44;13.10;58.90
10121;DHT22;5100;45.176;5.714;2022-11-20T15:43:10;13.10;59.30
10121;DHT22;5100;45.176;5.714;2022-11-20T15:45:53;13.10;59.70
10121;DHT22;5100;45.176;5.714;2022-11-20T15:48:24;13.10;59.70
10121;DHT22;5100;45.176;5.714;2022-11-20T15:53:36;13.10;59.10
10121;DHT22;5100;45.176;5.714;2022-11-20T15:56:03;13.10;59.60
10121;DHT22;5100;45.176;5.714;2022-11-20T15:58:29;13.00;59.80
10121;DHT22;5100;45.176;5.714;2022-11-20T16:00:55;13.00;60.10
10121;DHT22;5100;45.176;5.714;2022-11-20T16:03:22;13.00;60.20
10121;DHT22;5100;45.176;5.714;2022-11-20T16:05:48;13.00;60.20
10121;DHT22;5100;45.176;5.714;2022-11-20T16:08:14;13.00;60.10
10121;DHT22;5100;45.176;5.714;2022-11-20T16:10:41;13.00;60.20
10121;DHT22;5100;45.176;5.714;2022-11-20T16:13:14;13.00;60.30
10121;DHT22;5100;45.176;5.714;2022-11-20T16:16:05;13.00;60.20
10121;DHT22;5100;45.176;5.714;2022-11-20T16:18:32;12.90;60.10
10121;DHT22;5100;45.176;5.714;2022-11-20T16:20:59;12.90;60.00
10121;DHT22;5100;45.176;5.714;2022-11-20T16:23:25;12.90;59.90
10121;DHT22;5100;45.176;5.714;2022-11-20T16:25:51;12.90;59.80
10121;DHT22;5100;45.176;5.714;2022-11-20T16:28:17;12.90;59.90
10121;DHT22;5100;45.176;5.714;2022-11-20T16:30:44;12.90;60.00
10121;DHT22;5100;45.176;5.714;2022-11-20T16:33:12;12.90;60.10
10121;DHT22;5100;45.176;5.714;2022-11-20T16:35:39;12.90;60.20
10121;DHT22;5100;45.176;5.714;2022-11-20T16:38:05;12.90;60.20
10121;DHT22;5100;45.176;5.714;2022-11-20T16:40:31;12.90;60.30
10121;DHT22;5100;45.176;5.714;2022-11-20T16:42:57;12.90;60.30
10121;DHT22;5100;45.176;5.714;2022-11-20T16:45:31;12.90;60.80
10121;DHT22;5100;45.176;5.714;2022-11-20T16:47:58;12.90;61.20
10121;DHT22;5100;45.176;5.714;2022-11-20T16:50:24;12.90;61.40
10121;DHT22;5100;45.176;5.714;2022-11-20T16:52:50;12.90;62.00
10121;DHT22;5100;45.176;5.714;2022-11-20T16:55:16;12.90;62.10
10121;DHT22;5100;45.176;5.714;2022-11-20T16:57:42;12.90;62.00
10121;DHT22;5100;45.176;5.714;2022-11-20T17:00:08;12.90;61.50
10121;DHT22;5100;45.176;5.714;2022-11-20T17:02:35;12.90;61.20
10121;DHT22;5100;45.176;5.714;2022-11-20T17:05:02;12.90;61.20
10121;DHT22;5100;45.176;5.714;2022-11-20T17:07:28;12.90;61.40
10121;DHT22;5100;45.176;5.714;2022-11-20T17:09:55;12.90;61.60
10121;DHT22;5100;45.176;5.714;2022-11-20T17:12:22;12.90;61.50
10121;DHT22;5100;45.176;5.714;2022-11-20T17:14:48;13.00;61.70
10121;DHT22;5100;45.176;5.714;2022-11-20T17:17:14;13.10;61.80
10121;DHT22;5100;45.176;5.714;2022-11-20T17:19:40;13.20;62.00
10121;DHT22;5100;45.176;5.714;2022-11-20T17:22:06;13.20;61.70
10121;DHT22;5100;45.176;5.714;2022-11-20T17:24:32;13.20;61.40
10121;DHT22;5100;45.176;5.714;2022-11-20T17:26:58;13.30;61.50
10121;DHT22;5100;45.176;5.714;2022-11-20T17:29:24;13.20;61.30
10121;DHT22;5100;45.176;5.714;2022-11-20T17:31:51;13.20;61.30
10121;DHT22;5100;45.176;5.714;2022-11-20T17:34:18;13.20;61.00
10121;DHT22;5100;45.176;5.714;2022-11-20T17:36:44;13.20;60.60
10121;DHT22;5100;45.176;5.714;2022-11-20T17:39:15;13.20;61.50
10121;DHT22;5100;45.176;5.714;2022-11-20T17:41:42;13.20;61.40
10121;DHT22;5100;45.176;5.714;2022-11-20T17:44:09;13.20;62.00